createdAt,value
2023-01-21T00:00:00.734Z,-2.02
2023-01-21T00:01:00.877Z,-2.02
2023-01-21T00:02:01.108Z,-2.02
2023-01-21T00:03:01.171Z,-2.02
2023-01-21T00:04:00.330Z,-2.02
2023-01-21T00:05:00.486Z,-2.02
2023-01-21T00:06:00.622Z,-2.02
2023-01-21T00:07:00.795Z,-2.02
2023-01-21T00:08:02.650Z,-2.01
2023-01-21T00:09:01.052Z,-2.01
2023-01-21T00:10:01.206Z,-2.01
2023-01-21T00:11:00.378Z,-2.01
2023-01-21T00:12:00.504Z,-2
2023-01-21T00:13:00.663Z,-1.98
2023-01-21T00:14:00.814Z,-1.95
2023-01-21T00:15:00.965Z,-1.94
2023-01-21T00:16:01.250Z,-1.93
2023-01-21T00:17:01.249Z,-1.91
2023-01-21T00:18:00.415Z,-1.9
2023-01-21T00:19:00.563Z,-1.89
2023-01-21T00:20:00.699Z,-1.88
2023-01-21T00:21:00.863Z,-1.88
2023-01-21T00:22:01.009Z,-1.85
2023-01-21T00:23:01.154Z,-1.84
2023-01-21T00:24:00.296Z,-1.83
2023-01-21T00:25:00.463Z,-1.83
2023-01-21T00:26:00.624Z,-1.82
2023-01-21T00:27:00.745Z,-1.79
2023-01-21T00:28:00.903Z,-1.79
2023-01-21T00:29:01.066Z,-1.78
2023-01-21T00:30:01.196Z,-1.77
2023-01-21T00:31:00.512Z,-1.76
2023-01-21T00:32:00.549Z,-1.76
2023-01-21T00:33:00.655Z,-1.75
2023-01-21T00:34:00.811Z,-1.74
2023-01-21T00:35:00.962Z,-1.72
2023-01-21T00:36:01.137Z,-1.72
2023-01-21T00:37:01.245Z,-1.7
2023-01-21T00:38:00.405Z,-1.69
2023-01-21T00:39:00.542Z,-1.69
2023-01-21T00:40:00.683Z,-1.68
2023-01-21T00:41:00.851Z,-1.68
2023-01-21T00:42:00.990Z,-1.67
2023-01-21T00:43:01.150Z,-1.67
2023-01-21T00:44:00.291Z,-1.65
2023-01-21T00:45:00.459Z,-1.64
2023-01-21T00:46:00.708Z,-1.63
2023-01-21T00:47:00.739Z,-1.63
2023-01-21T00:48:00.888Z,-1.62
2023-01-21T00:49:01.029Z,-1.62
2023-01-21T00:50:01.175Z,-1.62
2023-01-21T00:51:00.435Z,-1.62
2023-01-21T00:52:00.504Z,-1.61
2023-01-21T00:53:00.619Z,-1.61
2023-01-21T00:54:00.758Z,-1.6
2023-01-21T00:55:00.914Z,-1.61
2023-01-21T00:56:01.107Z,-1.61
2023-01-21T00:57:01.228Z,-1.62
2023-01-21T00:58:00.364Z,-1.62
2023-01-21T00:59:00.505Z,-1.62
2023-01-21T01:00:00.682Z,-1.61
2023-01-21T01:01:00.794Z,-1.62
2023-01-21T01:02:00.935Z,-1.62
2023-01-21T01:03:01.170Z,-1.62
2023-01-21T01:04:01.231Z,-1.62
2023-01-21T01:05:00.392Z,-1.62
2023-01-21T01:06:00.527Z,-1.62
2023-01-21T01:07:00.677Z,-1.61
2023-01-21T01:08:00.848Z,-1.62
2023-01-21T01:09:00.976Z,-1.62
2023-01-21T01:10:01.129Z,-1.62
2023-01-21T01:11:00.310Z,-1.62
2023-01-21T01:12:00.414Z,-1.62
2023-01-21T01:13:00.567Z,-1.62
2023-01-21T01:14:00.735Z,-1.62
2023-01-21T01:15:01.198Z,-1.62
2023-01-21T01:16:01.068Z,-1.63
2023-01-21T01:17:01.144Z,-1.63
2023-01-21T01:18:00.296Z,-1.63
2023-01-21T01:19:00.429Z,-1.63
2023-01-21T01:20:00.573Z,-1.63
2023-01-21T01:21:00.739Z,-1.63
2023-01-21T01:22:00.872Z,-1.62
2023-01-21T01:23:01.025Z,-1.62
2023-01-21T01:24:01.172Z,-1.61
2023-01-21T01:25:00.321Z,-1.61
2023-01-21T01:26:00.514Z,-1.6
2023-01-21T01:27:00.633Z,-1.6
2023-01-21T01:28:00.763Z,-1.58
2023-01-21T01:29:00.908Z,-1.59
2023-01-21T01:30:01.084Z,-1.58
2023-01-21T01:31:01.317Z,-1.58
2023-01-21T01:32:00.358Z,-1.58
2023-01-21T01:33:00.491Z,-1.58
2023-01-21T01:34:00.635Z,-1.57
2023-01-21T01:35:00.796Z,-1.57
2023-01-21T01:36:00.930Z,-1.56
2023-01-21T01:37:01.106Z,-1.56
2023-01-21T01:38:01.247Z,-1.55
2023-01-21T01:39:00.420Z,-1.54
2023-01-21T01:40:00.553Z,-1.54
2023-01-21T01:41:00.693Z,-1.54
2023-01-21T01:42:00.855Z,-1.53
2023-01-21T01:43:01.016Z,-1.52
2023-01-21T01:44:01.171Z,-1.5
2023-01-21T01:45:00.329Z,-1.5
2023-01-21T01:46:00.499Z,-1.5
2023-01-21T01:47:00.596Z,-1.5
2023-01-21T01:48:00.769Z,-1.49
2023-01-21T01:49:00.900Z,-1.49
2023-01-21T01:50:01.054Z,-1.5
2023-01-21T01:51:01.256Z,-1.52
2023-01-21T01:52:00.341Z,-1.54
2023-01-21T01:53:00.498Z,-1.56
2023-01-21T01:54:00.628Z,-1.57
2023-01-21T01:55:00.779Z,-1.58
2023-01-21T01:56:00.941Z,-1.59
2023-01-21T01:57:01.082Z,-1.6
2023-01-21T01:58:01.225Z,-1.61
2023-01-21T01:59:00.357Z,-1.62
2023-01-21T02:00:00.523Z,-1.64
2023-01-21T02:01:00.682Z,-1.65
2023-01-21T02:02:00.872Z,-1.67
2023-01-21T02:03:01.033Z,-1.68
2023-01-21T02:04:01.097Z,-1.68
2023-01-21T02:05:01.239Z,-1.68
2023-01-21T02:06:00.419Z,-1.7
2023-01-21T02:07:00.543Z,-1.69
2023-01-21T02:08:00.700Z,-1.7
2023-01-21T02:09:00.874Z,-1.7
2023-01-21T02:10:00.984Z,-1.71
2023-01-21T02:11:01.135Z,-1.72
2023-01-21T02:12:00.283Z,-1.74
2023-01-21T02:13:00.436Z,-1.74
2023-01-21T02:14:00.604Z,-1.73
2023-01-21T02:15:00.735Z,-1.74
2023-01-21T02:16:00.917Z,-1.74
2023-01-21T02:17:01.035Z,-1.75
2023-01-21T02:18:01.184Z,-1.76
2023-01-21T02:19:00.350Z,-1.76
2023-01-21T02:20:00.476Z,-1.75
2023-01-21T02:21:00.610Z,-1.74
2023-01-21T02:22:00.768Z,-1.74
2023-01-21T02:23:00.941Z,-1.75
2023-01-21T02:24:01.094Z,-1.75
2023-01-21T02:25:01.228Z,-1.75
2023-01-21T02:26:00.370Z,-1.74
2023-01-21T02:27:00.537Z,-1.74
2023-01-21T02:28:00.660Z,-1.74
2023-01-21T02:29:00.818Z,-1.76
2023-01-21T02:30:00.959Z,-1.76
2023-01-21T02:31:01.209Z,-1.76
2023-01-21T02:32:00.295Z,-1.76
2023-01-21T02:33:00.407Z,-1.76
2023-01-21T02:34:00.565Z,-1.75
2023-01-21T02:35:00.700Z,-1.75
2023-01-21T02:36:00.853Z,-1.75
2023-01-21T02:37:01.019Z,-1.74
2023-01-21T02:38:01.143Z,-1.73
2023-01-21T02:39:00.310Z,-1.73
2023-01-21T02:40:00.452Z,-1.74
2023-01-21T02:41:00.600Z,-1.74
2023-01-21T02:42:00.738Z,-1.74
2023-01-21T02:43:00.901Z,-1.75
2023-01-21T02:44:01.071Z,-1.74
2023-01-21T02:45:01.198Z,-1.74
2023-01-21T02:46:00.337Z,-1.74
2023-01-21T02:47:00.490Z,-1.75
2023-01-21T02:48:00.614Z,-1.74
2023-01-21T02:49:00.794Z,-1.73
2023-01-21T02:50:00.929Z,-1.73
2023-01-21T02:51:01.115Z,-1.73
2023-01-21T02:52:01.217Z,-1.72
2023-01-21T02:53:00.355Z,-1.72
2023-01-21T02:54:00.522Z,-1.72
2023-01-21T02:55:00.692Z,-1.72
2023-01-21T02:56:00.796Z,-1.72
2023-01-21T02:57:00.983Z,-1.71
2023-01-21T02:58:01.099Z,-1.72
2023-01-21T02:59:01.265Z,-1.7
2023-01-21T03:00:00.409Z,-1.7
2023-01-21T03:01:00.640Z,-1.69
2023-01-21T03:02:00.806Z,-1.69
2023-01-21T03:03:00.851Z,-1.69
2023-01-21T03:04:01.011Z,-1.68
2023-01-21T03:05:01.170Z,-1.68
2023-01-21T03:06:00.303Z,-1.67
2023-01-21T03:07:00.456Z,-1.68
2023-01-21T03:08:00.611Z,-1.68
2023-01-21T03:09:00.774Z,-1.67
2023-01-21T03:10:00.916Z,-1.68
2023-01-21T03:11:01.046Z,-1.68
2023-01-21T03:12:01.202Z,-1.68
2023-01-21T03:13:00.343Z,-1.68
2023-01-21T03:14:00.516Z,-1.67
2023-01-21T03:15:00.650Z,-1.67
2023-01-21T03:16:00.823Z,-1.68
2023-01-21T03:17:00.958Z,-1.68
2023-01-21T03:18:01.103Z,-1.67
2023-01-21T03:19:01.249Z,-1.67
2023-01-21T03:20:00.433Z,-1.67
2023-01-21T03:21:00.533Z,-1.67
2023-01-21T03:22:00.696Z,-1.65
2023-01-21T03:23:00.843Z,-1.65
2023-01-21T03:24:00.978Z,-1.65
2023-01-21T03:25:01.163Z,-1.65
2023-01-21T03:26:00.313Z,-1.65
2023-01-21T03:27:00.422Z,-1.64
2023-01-21T03:28:00.585Z,-1.64
2023-01-21T03:29:00.714Z,-1.63
2023-01-21T03:30:00.871Z,-1.62
2023-01-21T03:31:01.114Z,-1.62
2023-01-21T03:32:01.159Z,-1.63
2023-01-21T03:33:00.311Z,-1.64
2023-01-21T03:34:00.454Z,-1.63
2023-01-21T03:35:00.596Z,-1.63
2023-01-21T03:36:00.769Z,-1.64
2023-01-21T03:37:00.884Z,-1.63
2023-01-21T03:38:01.034Z,-1.63
2023-01-21T03:39:01.188Z,-1.62
2023-01-21T03:40:00.349Z,-1.63
2023-01-21T03:41:00.494Z,-1.62
2023-01-21T03:42:00.645Z,-1.63
2023-01-21T03:43:00.778Z,-1.63
2023-01-21T03:44:00.922Z,-1.62
2023-01-21T03:45:01.081Z,-1.61
2023-01-21T03:46:01.284Z,-1.6
2023-01-21T03:47:00.380Z,-1.62
2023-01-21T03:48:00.505Z,-1.61
2023-01-21T03:49:00.643Z,-1.61
2023-01-21T03:50:00.797Z,-1.6
2023-01-21T03:51:00.961Z,-1.6
2023-01-21T03:52:01.108Z,-1.6
2023-01-21T03:53:01.236Z,-1.6
2023-01-21T03:54:00.398Z,-1.61
2023-01-21T03:55:00.553Z,-1.61
2023-01-21T03:56:00.693Z,-1.6
2023-01-21T03:57:00.850Z,-1.6
2023-01-21T03:58:00.976Z,-1.6
2023-01-21T03:59:01.139Z,-1.61
2023-01-21T04:00:00.288Z,-1.61
2023-01-21T04:01:00.525Z,-1.6
2023-01-21T04:02:00.656Z,-1.6
2023-01-21T04:03:00.732Z,-1.6
2023-01-21T04:04:00.891Z,-1.61
2023-01-21T04:05:01.025Z,-1.6
2023-01-21T04:06:01.194Z,-1.6
2023-01-21T04:07:00.346Z,-1.61
2023-01-21T04:08:00.513Z,-1.62
2023-01-21T04:09:00.635Z,-1.65
2023-01-21T04:10:00.799Z,-1.68
2023-01-21T04:11:00.920Z,-1.71
2023-01-21T04:12:01.062Z,-1.72
2023-01-21T04:13:01.216Z,-1.74
2023-01-21T04:14:00.368Z,-1.75
2023-01-21T04:15:00.560Z,-1.75
2023-01-21T04:16:00.663Z,-1.76
2023-01-21T04:17:00.806Z,-1.77
2023-01-21T04:18:00.968Z,-1.79
2023-01-21T04:19:01.110Z,-1.8
2023-01-21T04:20:01.258Z,-1.82
2023-01-21T04:21:00.429Z,-1.82
2023-01-21T04:22:00.567Z,-1.82
2023-01-21T04:23:00.701Z,-1.8
2023-01-21T04:24:00.853Z,-1.82
2023-01-21T04:25:01.002Z,-1.84
2023-01-21T04:26:01.171Z,-1.84
2023-01-21T04:27:00.280Z,-1.85
2023-01-21T04:28:00.429Z,-1.85
2023-01-21T04:29:00.582Z,-1.87
2023-01-21T04:30:00.723Z,-1.88
2023-01-21T04:31:00.936Z,-1.88
2023-01-21T04:32:01.195Z,-1.88
2023-01-21T04:33:01.182Z,-1.9
2023-01-21T04:34:00.317Z,-1.9
2023-01-21T04:35:00.479Z,-1.92
2023-01-21T04:36:00.626Z,-1.93
2023-01-21T04:37:00.779Z,-1.93
2023-01-21T04:38:00.915Z,-1.92
2023-01-21T04:39:01.069Z,-1.91
2023-01-21T04:40:01.216Z,-1.9
2023-01-21T04:41:00.373Z,-1.9
2023-01-21T04:42:00.534Z,-1.91
2023-01-21T04:43:00.665Z,-1.91
2023-01-21T04:44:00.836Z,-1.92
2023-01-21T04:45:00.957Z,-1.92
2023-01-21T04:46:01.236Z,-1.93
2023-01-21T04:47:00.271Z,-1.95
2023-01-21T04:48:00.428Z,-1.95
2023-01-21T04:49:00.563Z,-1.97
2023-01-21T04:50:00.707Z,-1.94
2023-01-21T04:51:00.917Z,-1.93
2023-01-21T04:52:01.044Z,-1.94
2023-01-21T04:53:01.156Z,-1.97
2023-01-21T04:54:00.306Z,-1.98
2023-01-21T04:55:00.440Z,-2
2023-01-21T04:56:00.601Z,-2.01
2023-01-21T04:57:00.785Z,-2.01
2023-01-21T04:58:00.884Z,-2.01
2023-01-21T04:59:01.034Z,-2.01
2023-01-21T05:00:01.188Z,-2.02
2023-01-21T05:01:00.392Z,-2.02
2023-01-21T05:02:00.544Z,-2.02
2023-01-21T05:03:00.627Z,-2.02
2023-01-21T05:04:00.775Z,-2.02
2023-01-21T05:05:00.923Z,-2.02
2023-01-21T05:06:01.063Z,-2.02
2023-01-21T05:07:01.226Z,-2.02
2023-01-21T05:08:00.356Z,-2.02
2023-01-21T05:09:00.493Z,-2.02
2023-01-21T05:10:00.650Z,-2.02
2023-01-21T05:11:00.799Z,-2.02
2023-01-21T05:12:00.978Z,-2.02
2023-01-21T05:13:01.099Z,-2.02
2023-01-21T05:14:01.298Z,-2.01
2023-01-21T05:15:00.399Z,-2.02
2023-01-21T05:16:00.639Z,-2.02
2023-01-21T05:17:00.824Z,-2.02
2023-01-21T05:18:00.846Z,-2.02
2023-01-21T05:19:00.987Z,-2.02
2023-01-21T05:20:01.140Z,-2.02
2023-01-21T05:21:01.045Z,-2.02
2023-01-21T05:22:00.450Z,-2.03
2023-01-21T05:23:00.598Z,-2.06
2023-01-21T05:24:00.732Z,-2.07
2023-01-21T05:25:00.879Z,-2.08
2023-01-21T05:26:01.018Z,-2.08
2023-01-21T05:27:01.185Z,-2.1
2023-01-21T05:28:00.354Z,-2.13
2023-01-21T05:29:00.494Z,-2.14
2023-01-21T05:30:00.629Z,-2.13
2023-01-21T05:31:00.864Z,-2.14
2023-01-21T05:32:01.026Z,-2.15
2023-01-21T05:33:01.103Z,-2.15
2023-01-21T05:34:01.219Z,-2.15
2023-01-21T05:35:00.392Z,-2.15
2023-01-21T05:36:00.536Z,-2.14
2023-01-21T05:37:00.675Z,-2.15
2023-01-21T05:38:00.853Z,-2.15
2023-01-21T05:39:00.965Z,-2.14
2023-01-21T05:40:01.115Z,-2.13
2023-01-21T05:42:00.370Z,-2.14
2023-01-21T05:43:00.543Z,-2.15
2023-01-21T05:44:00.659Z,-2.16
2023-01-21T05:45:00.820Z,-2.17
2023-01-21T05:46:01.032Z,-2.17
2023-01-21T05:47:01.108Z,-2.16
2023-01-21T05:48:01.263Z,-2.17
2023-01-21T05:49:00.398Z,-2.15
2023-01-21T05:50:00.545Z,-2.16
2023-01-21T05:51:00.737Z,-2.17
2023-01-21T05:52:00.845Z,-2.18
2023-01-21T05:53:00.998Z,-2.18
2023-01-21T05:54:01.154Z,-2.17
2023-01-21T05:55:02.516Z,-2.15
2023-01-21T05:56:00.429Z,-2.16
2023-01-21T05:57:00.568Z,-2.16
2023-01-21T05:58:00.719Z,-2.17
2023-01-21T05:59:00.894Z,-2.16
2023-01-21T06:00:01.054Z,-2.16
2023-01-21T06:01:01.186Z,-2.15
2023-01-21T06:02:00.334Z,-2.15
2023-01-21T06:03:00.475Z,-2.14
2023-01-21T06:04:00.653Z,-2.14
2023-01-21T06:05:00.792Z,-2.12
2023-01-21T06:06:00.928Z,-2.12
2023-01-21T06:07:01.077Z,-2.1
2023-01-21T06:08:01.240Z,-2.1
2023-01-21T06:09:00.400Z,-2.1
2023-01-21T06:10:00.525Z,-2.09
2023-01-21T06:11:00.657Z,-2.08
2023-01-21T06:12:00.803Z,-2.09
2023-01-21T06:13:00.962Z,-2.09
2023-01-21T06:14:01.102Z,-2.09
2023-01-21T06:15:01.228Z,-2.09
2023-01-21T06:16:00.454Z,-2.1
2023-01-21T06:17:00.517Z,-2.13
2023-01-21T06:18:00.675Z,-2.15
2023-01-21T06:19:00.880Z,-2.17
2023-01-21T06:20:00.983Z,-2.17
2023-01-21T06:21:01.141Z,-2.18
2023-01-21T06:22:00.274Z,-2.18
2023-01-21T06:23:00.428Z,-2.17
2023-01-21T06:24:00.627Z,-2.18
2023-01-21T06:25:00.755Z,-2.19
2023-01-21T06:26:00.949Z,-2.19
2023-01-21T06:27:01.040Z,-2.2
2023-01-21T06:28:01.203Z,-2.2
2023-01-21T06:29:00.325Z,-2.19
2023-01-21T06:30:00.508Z,-2.2
2023-01-21T06:31:00.752Z,-2.21
2023-01-21T06:32:00.929Z,-2.21
2023-01-21T06:33:00.937Z,-2.22
2023-01-21T06:34:01.086Z,-2.23
2023-01-21T06:35:01.242Z,-2.27
2023-01-21T06:36:00.990Z,-2.29
2023-01-21T06:37:00.517Z,-2.3
2023-01-21T06:38:00.663Z,-2.33
2023-01-21T06:39:00.812Z,-2.35
2023-01-21T06:40:00.966Z,-2.35
2023-01-21T06:41:01.120Z,-2.35
2023-01-21T06:42:01.291Z,-2.35
2023-01-21T06:43:00.404Z,-2.35
2023-01-21T06:44:00.574Z,-2.35
2023-01-21T06:45:00.701Z,-2.37
2023-01-21T06:46:00.877Z,-2.39
2023-01-21T06:47:01.604Z,-2.39
2023-01-21T06:48:01.154Z,-2.39
2023-01-21T06:49:00.309Z,-2.39
2023-01-21T06:50:00.444Z,-2.41
2023-01-21T06:51:00.606Z,-2.41
2023-01-21T06:52:00.795Z,-2.41
2023-01-21T06:53:00.893Z,-2.41
2023-01-21T06:54:01.044Z,-2.41
2023-01-21T06:55:01.188Z,-2.41
2023-01-21T06:56:00.344Z,-2.39
2023-01-21T06:57:00.506Z,-2.38
2023-01-21T06:58:00.635Z,-2.38
2023-01-21T06:59:00.777Z,-2.38
2023-01-21T07:00:00.922Z,-2.37
2023-01-21T07:01:01.073Z,-2.37
2023-01-21T07:02:01.231Z,-2.38
2023-01-21T07:03:00.400Z,-2.38
2023-01-21T07:04:00.529Z,-2.36
2023-01-21T07:05:00.696Z,-2.35
2023-01-21T07:06:00.806Z,-2.34
2023-01-21T07:07:00.971Z,-2.35
2023-01-21T07:08:01.101Z,-2.35
2023-01-21T07:09:01.244Z,-2.35
2023-01-21T07:10:00.398Z,-2.35
2023-01-21T07:11:00.553Z,-2.34
2023-01-21T07:12:00.710Z,-2.33
2023-01-21T07:13:00.867Z,-2.32
2023-01-21T07:14:01.012Z,-2.32
2023-01-21T07:15:01.129Z,-2.33
2023-01-21T07:16:00.405Z,-2.35
2023-01-21T07:17:00.417Z,-2.35
2023-01-21T07:18:00.580Z,-2.35
2023-01-21T07:19:00.725Z,-2.34
2023-01-21T07:20:00.859Z,-2.33
2023-01-21T07:21:01.016Z,-2.33
2023-01-21T07:22:01.168Z,-2.33
2023-01-21T07:23:00.304Z,-2.33
2023-01-21T07:24:00.481Z,-2.33
2023-01-21T07:25:00.644Z,-2.32
2023-01-21T07:26:00.754Z,-2.32
2023-01-21T07:27:00.897Z,-2.32
2023-01-21T07:28:01.056Z,-2.32
2023-01-21T07:29:01.968Z,-2.31
2023-01-21T07:30:00.327Z,-2.3
2023-01-21T07:31:00.582Z,-2.28
2023-01-21T07:32:00.657Z,-2.29
2023-01-21T07:33:00.787Z,-2.29
2023-01-21T07:34:00.919Z,-2.28
2023-01-21T07:35:01.059Z,-2.29
2023-01-21T07:36:01.219Z,-2.3
2023-01-21T07:37:00.357Z,-2.3
2023-01-21T07:38:00.520Z,-2.29
2023-01-21T07:39:00.648Z,-2.29
2023-01-21T07:40:00.781Z,-2.3
2023-01-21T07:41:00.931Z,-2.29
2023-01-21T07:42:01.090Z,-2.28
2023-01-21T07:43:01.272Z,-2.28
2023-01-21T07:44:00.394Z,-2.27
2023-01-21T07:45:00.561Z,-2.26
2023-01-21T07:46:00.686Z,-2.23
2023-01-21T07:47:00.847Z,-2.22
2023-01-21T07:48:01.009Z,-2.22
2023-01-21T07:49:01.168Z,-2.22
2023-01-21T07:50:00.280Z,-2.21
2023-01-21T07:51:00.481Z,-2.2
2023-01-21T07:52:00.560Z,-2.2
2023-01-21T07:53:00.714Z,-2.2
2023-01-21T07:54:00.891Z,-2.21
2023-01-21T07:55:00.989Z,-2.2
2023-01-21T07:56:01.154Z,-2.19
2023-01-21T07:57:00.315Z,-2.19
2023-01-21T07:58:00.477Z,-2.18
2023-01-21T07:59:00.630Z,-2.18
2023-01-21T08:00:00.759Z,-2.17
2023-01-21T08:01:00.904Z,-2.18
2023-01-21T08:02:01.177Z,-2.17
2023-01-21T08:03:01.214Z,-2.17
2023-01-21T08:04:00.388Z,-2.16
2023-01-21T08:05:00.529Z,-2.15
2023-01-21T08:06:00.657Z,-2.13
2023-01-21T08:07:00.817Z,-2.12
2023-01-21T08:08:00.953Z,-2.09
2023-01-21T08:09:01.126Z,-2.09
2023-01-21T08:10:01.289Z,-2.1
2023-01-21T08:11:00.412Z,-2.1
2023-01-21T08:12:00.556Z,-2.12
2023-01-21T08:13:00.709Z,-2.09
2023-01-21T08:14:00.841Z,-2.08
2023-01-21T08:15:01.012Z,-2.08
2023-01-21T08:16:01.216Z,-2.09
2023-01-21T08:17:00.288Z,-2.1
2023-01-21T08:18:00.439Z,-2.1
2023-01-21T08:19:00.595Z,-2.1
2023-01-21T08:20:00.741Z,-2.09
2023-01-21T08:21:00.872Z,-2.08
2023-01-21T08:22:01.032Z,-2.07
2023-01-21T08:23:01.185Z,-2.07
2023-01-21T08:24:00.323Z,-2.05
2023-01-21T08:25:00.474Z,-2.06
2023-01-21T08:26:00.631Z,-2.03
2023-01-21T08:27:00.769Z,-2.03
2023-01-21T08:28:00.954Z,-2.02
2023-01-21T08:29:01.079Z,-2.02
2023-01-21T08:30:01.212Z,-2.02
2023-01-21T08:31:00.444Z,-2.02
2023-01-21T08:32:00.499Z,-2.02
2023-01-21T08:33:00.692Z,-2.02
2023-01-21T08:34:00.791Z,-2.02
2023-01-21T08:35:00.945Z,-2.02
2023-01-21T08:36:01.088Z,-2.02
2023-01-21T08:37:01.247Z,-2.02
2023-01-21T08:38:00.423Z,-2.02
2023-01-21T08:39:00.546Z,-2.02
2023-01-21T08:40:00.687Z,-2.01
2023-01-21T08:41:00.839Z,-2.02
2023-01-21T08:42:00.971Z,-2.02
2023-01-21T08:43:01.155Z,-2.02
2023-01-21T08:44:00.274Z,-2.02
2023-01-21T08:45:00.411Z,-2.02
2023-01-21T08:46:00.612Z,-2.02
2023-01-21T08:47:00.711Z,-2.02
2023-01-21T08:48:00.880Z,-2.01
2023-01-21T08:49:01.011Z,-2.01
2023-01-21T08:50:01.152Z,-2.01
2023-01-21T08:51:00.352Z,-2.01
2023-01-21T08:52:00.460Z,-2
2023-01-21T08:53:00.613Z,-1.99
2023-01-21T08:54:00.767Z,-1.97
2023-01-21T08:55:00.907Z,-1.95
2023-01-21T08:56:01.050Z,-1.95
2023-01-21T08:57:01.212Z,-1.95
2023-01-21T08:58:00.363Z,-1.94
2023-01-21T08:59:00.507Z,-1.94
2023-01-21T09:00:00.648Z,-1.93
2023-01-21T09:01:00.829Z,-1.91
2023-01-21T09:02:00.992Z,-1.91
2023-01-21T09:03:01.102Z,-1.89
2023-01-21T09:04:01.239Z,-1.89
2023-01-21T09:05:00.380Z,-1.88
2023-01-21T09:06:00.517Z,-1.88
2023-01-21T09:07:00.656Z,-1.89
2023-01-21T09:08:00.834Z,-1.89
2023-01-21T09:09:00.979Z,-1.89
2023-01-21T09:10:01.118Z,-1.88
2023-01-21T09:11:00.272Z,-1.84
2023-01-21T09:12:00.422Z,-1.82
2023-01-21T09:13:00.567Z,-1.8
2023-01-21T09:14:00.734Z,-1.8
2023-01-21T09:15:00.865Z,-1.83
2023-01-21T09:16:01.015Z,-1.82
2023-01-21T09:17:01.182Z,-1.8
2023-01-21T09:18:00.310Z,-1.78
2023-01-21T09:19:00.483Z,-1.77
2023-01-21T09:20:00.603Z,-1.78
2023-01-21T09:21:00.777Z,-1.8
2023-01-21T09:22:00.907Z,-1.78
2023-01-21T09:23:01.041Z,-1.78
2023-01-21T09:24:01.206Z,-1.77
2023-01-21T09:25:00.358Z,-1.77
2023-01-21T09:26:00.519Z,-1.77
2023-01-21T09:27:00.659Z,-1.77
2023-01-21T09:28:00.779Z,-1.75
2023-01-21T09:29:00.931Z,-1.76
2023-01-21T09:30:01.066Z,-1.76
2023-01-21T09:31:01.276Z,-1.74
2023-01-21T09:32:00.486Z,-1.74
2023-01-21T09:33:00.511Z,-1.72
2023-01-21T09:34:00.664Z,-1.71
2023-01-21T09:35:00.806Z,-1.7
2023-01-21T09:36:00.969Z,-1.68
2023-01-21T09:37:01.116Z,-1.67
2023-01-21T09:38:01.252Z,-1.68
2023-01-21T09:39:00.396Z,-1.65
2023-01-21T09:40:00.536Z,-1.64
2023-01-21T09:41:00.686Z,-1.62
2023-01-21T09:42:00.851Z,-1.61
2023-01-21T09:43:01.011Z,-1.6
2023-01-21T09:44:01.146Z,-1.61
2023-01-21T09:45:00.334Z,-1.62
2023-01-21T09:46:02.943Z,-1.62
2023-01-21T09:47:00.607Z,-1.62
2023-01-21T09:48:00.732Z,-1.63
2023-01-21T09:49:00.883Z,-1.62
2023-01-21T09:50:01.023Z,-1.61
2023-01-21T09:51:01.240Z,-1.6
2023-01-21T09:52:00.350Z,-1.6
2023-01-21T09:53:00.492Z,-1.61
2023-01-21T09:54:00.627Z,-1.61
2023-01-21T09:55:00.805Z,-1.6
2023-01-21T09:56:00.941Z,-1.59
2023-01-21T09:57:01.080Z,-1.58
2023-01-21T09:58:01.214Z,-1.56
2023-01-21T09:59:00.369Z,-1.55
2023-01-21T10:00:00.517Z,-1.54
2023-01-21T10:01:00.769Z,-1.53
2023-01-21T10:02:00.825Z,-1.52
2023-01-21T10:03:00.947Z,-1.52
2023-01-21T10:04:01.097Z,-1.5
2023-01-21T10:05:01.248Z,-1.49
2023-01-21T10:06:00.386Z,-1.47
2023-01-21T10:07:00.560Z,-1.49
2023-01-21T10:08:00.685Z,-1.5
2023-01-21T10:09:00.831Z,-1.5
2023-01-21T10:10:00.991Z,-1.49
2023-01-21T10:11:01.126Z,-1.52
2023-01-21T10:12:00.286Z,-1.52
2023-01-21T10:13:00.417Z,-1.52
2023-01-21T10:14:00.561Z,-1.52
2023-01-21T10:15:00.705Z,-1.52
2023-01-21T10:16:00.844Z,-1.52
2023-01-21T10:17:01.002Z,-1.49
2023-01-21T10:18:01.199Z,-1.49
2023-01-21T10:19:00.276Z,-1.48
2023-01-21T10:20:00.439Z,-1.47
2023-01-21T10:21:00.590Z,-1.47
2023-01-21T10:22:00.724Z,-1.46
2023-01-21T10:23:00.899Z,-1.45
2023-01-21T10:24:01.036Z,-1.42
2023-01-21T10:25:01.184Z,-1.41
2023-01-21T10:26:00.318Z,-1.41
2023-01-21T10:27:00.471Z,-1.41
2023-01-21T10:28:00.613Z,-1.41
2023-01-21T10:29:00.767Z,-1.41
2023-01-21T10:30:00.969Z,-1.4
2023-01-21T10:31:01.117Z,-1.39
2023-01-21T10:32:01.200Z,-1.36
2023-01-21T10:33:00.348Z,-1.38
2023-01-21T10:34:00.500Z,-1.36
2023-01-21T10:35:00.659Z,-1.36
2023-01-21T10:36:00.822Z,-1.34
2023-01-21T10:37:00.944Z,-1.34
2023-01-21T10:38:01.097Z,-1.36
2023-01-21T10:39:01.240Z,-1.35
2023-01-21T10:40:00.412Z,-1.34
2023-01-21T10:41:00.522Z,-1.32
2023-01-21T10:42:00.669Z,-1.32
2023-01-21T10:43:00.807Z,-1.3
2023-01-21T10:44:00.959Z,-1.3
2023-01-21T10:45:01.121Z,-1.28
2023-01-21T10:46:01.296Z,-1.27
2023-01-21T10:47:00.404Z,-1.25
2023-01-21T10:48:00.549Z,-1.24
2023-01-21T10:49:00.698Z,-1.24
2023-01-21T10:50:00.871Z,-1.23
2023-01-21T10:51:01.077Z,-1.21
2023-01-21T10:52:01.126Z,-1.2
2023-01-21T10:53:00.260Z,-1.2
2023-01-21T10:54:00.455Z,-1.21
2023-01-21T10:55:00.595Z,-1.24
2023-01-21T10:56:00.734Z,-1.25
2023-01-21T10:57:00.861Z,-1.24
2023-01-21T10:58:01.015Z,-1.25
2023-01-21T10:59:01.165Z,-1.24
2023-01-21T11:00:00.284Z,-1.23
2023-01-21T11:01:00.473Z,-1.21
2023-01-21T11:02:00.581Z,-1.19
2023-01-21T11:03:00.731Z,-1.18
2023-01-21T11:04:00.928Z,-1.16
2023-01-21T11:05:01.034Z,-1.14
2023-01-21T11:06:01.186Z,-1.13
2023-01-21T11:07:00.319Z,-1.13
2023-01-21T11:08:00.506Z,-1.13
2023-01-21T11:09:00.678Z,-1.12
2023-01-21T11:10:00.799Z,-1.11
2023-01-21T11:11:00.919Z,-1.11
2023-01-21T11:12:01.098Z,-1.08
2023-01-21T11:13:01.210Z,-1.06
2023-01-21T11:14:00.366Z,-1.09
2023-01-21T11:15:00.530Z,-1.09
2023-01-21T11:16:00.712Z,-1.09
2023-01-21T11:17:00.795Z,-1.09
2023-01-21T11:18:00.950Z,-1.09
2023-01-21T11:19:01.103Z,-1.08
2023-01-21T11:20:01.276Z,-1.09
2023-01-21T11:21:00.401Z,-1.09
2023-01-21T11:22:00.534Z,-1.09
2023-01-21T11:23:00.695Z,-1.11
2023-01-21T11:24:00.858Z,-1.13
2023-01-21T11:25:01.014Z,-1.14
2023-01-21T11:26:01.167Z,-1.15
2023-01-21T11:27:00.286Z,-1.15
2023-01-21T11:28:00.444Z,-1.13
2023-01-21T11:29:00.593Z,-1.13
2023-01-21T11:30:00.765Z,-1.15
2023-01-21T11:31:01.066Z,-1.15
2023-01-21T11:32:01.136Z,-1.15
2023-01-21T11:33:01.173Z,-1.15
2023-01-21T11:34:00.323Z,-1.15
2023-01-21T11:35:00.476Z,-1.14
2023-01-21T11:36:00.646Z,-1.14
2023-01-21T11:37:00.804Z,-1.12
2023-01-21T11:38:00.916Z,-1.09
2023-01-21T11:39:01.098Z,-1.1
2023-01-21T11:40:01.234Z,-1.1
2023-01-21T11:41:00.360Z,-1.11
2023-01-21T11:42:00.541Z,-1.11
2023-01-21T11:43:00.679Z,-1.11
2023-01-21T11:44:00.817Z,-1.11
2023-01-21T11:45:00.982Z,-1.1
2023-01-21T11:46:01.166Z,-1.1
2023-01-21T11:47:00.257Z,-1.11
2023-01-21T11:48:00.425Z,-1.1
2023-01-21T11:49:00.568Z,-1.09
2023-01-21T11:50:00.726Z,-1.08
2023-01-21T11:51:00.960Z,-1.08
2023-01-21T11:52:01.027Z,-1.09
2023-01-21T11:53:02.000Z,-1.09
2023-01-21T11:54:00.320Z,-1.09
2023-01-21T11:55:00.467Z,-1.06
2023-01-21T11:56:00.616Z,-1.06
2023-01-21T11:57:00.768Z,-1.06
2023-01-21T11:58:00.932Z,-1.04
2023-01-21T11:59:01.058Z,-1.04
2023-01-21T12:00:01.199Z,-1.03
2023-01-21T12:01:00.375Z,-1.02
2023-01-21T12:02:00.496Z,-1.01
2023-01-21T12:03:00.697Z,-1
2023-01-21T12:04:00.836Z,-1
2023-01-21T12:05:00.948Z,-1
2023-01-21T12:06:01.091Z,-1
2023-01-21T12:07:01.244Z,-0.99
2023-01-21T12:08:00.407Z,-0.98
2023-01-21T12:09:00.556Z,-0.97
2023-01-21T12:10:00.687Z,-0.95
2023-01-21T12:11:00.821Z,-0.96
2023-01-21T12:12:00.969Z,-0.97
2023-01-21T12:13:01.142Z,-0.97
2023-01-21T12:14:01.246Z,-0.97
2023-01-21T12:15:00.407Z,-0.96
2023-01-21T12:16:00.622Z,-0.94
2023-01-21T12:17:00.688Z,-0.93
2023-01-21T12:18:00.853Z,-0.9
2023-01-21T12:19:00.997Z,-0.89
2023-01-21T12:20:01.190Z,-0.87
2023-01-21T12:21:00.268Z,-0.87
2023-01-21T12:22:00.415Z,-0.87
2023-01-21T12:23:00.590Z,-0.88
2023-01-21T12:24:00.710Z,-0.87
2023-01-21T12:25:00.862Z,-0.85
2023-01-21T12:26:01.005Z,-0.85
2023-01-21T12:27:01.154Z,-0.84
2023-01-21T12:28:00.327Z,-0.84
2023-01-21T12:29:00.466Z,-0.85
2023-01-21T12:30:00.612Z,-0.84
2023-01-21T12:31:00.844Z,-0.84
2023-01-21T12:32:00.930Z,-0.85
2023-01-21T12:33:01.065Z,-0.83
2023-01-21T12:34:01.210Z,-0.8
2023-01-21T12:35:00.339Z,-0.83
2023-01-21T12:36:00.507Z,-0.83
2023-01-21T12:37:00.627Z,-0.83
2023-01-21T12:38:00.800Z,-0.84
2023-01-21T12:39:00.966Z,-0.84
2023-01-21T12:40:01.116Z,-0.84
2023-01-21T12:41:01.275Z,-0.84
2023-01-21T12:42:00.401Z,-0.84
2023-01-21T12:43:00.551Z,-0.85
2023-01-21T12:44:00.737Z,-0.84
2023-01-21T12:45:00.851Z,-0.83
2023-01-21T12:46:01.031Z,-0.81
2023-01-21T12:47:01.233Z,-0.81
2023-01-21T12:48:00.289Z,-0.81
2023-01-21T12:49:02.151Z,-0.8
2023-01-21T12:50:00.617Z,-0.77
2023-01-21T12:51:00.794Z,-0.77
2023-01-21T12:52:00.902Z,-0.77
2023-01-21T12:53:01.049Z,-0.76
2023-01-21T12:54:01.189Z,-0.76
2023-01-21T12:55:00.346Z,-0.76
2023-01-21T12:56:00.524Z,-0.77
2023-01-21T12:57:00.643Z,-0.77